Time;durP1;ratioP1;P1;durP2;ratioP2;P2;SDS_P1;SDS_P2;PMS_P1;PMS_P2;Temp;Humidity;BMP_temperature;BMP_pressure;BME280_temperature;BME280_humidity;BME280_pressure;Samples;Min_cycle;Max_cycle;Signal;HPM_P1;HPM_P2
2023/11/06 00:02:05;;;;;;;14.27;12.05;;;;;;;;;;6127142;23;20032;-77
2023/11/06 00:04:31;;;;;;;7.47;6.88;;;;;;;;;;6152149;23;20418;-77
2023/11/06 00:06:57;;;;;;;8.48;7.78;;;;;;;;;;6153386;23;20016;-77
2023/11/06 00:09:23;;;;;;;11.68;9.55;;;;;;;;;;6157119;23;20025;-77
2023/11/06 00:11:50;;;;;;;14.60;12.00;;;;;;;;;;6160634;23;20017;-78
2023/11/06 00:14:16;;;;;;;9.48;8.75;;;;;;;;;;6129067;23;20039;-78
2023/11/06 00:16:42;;;;;;;6.03;5.63;;;;;;;;;;6153395;23;20013;-78
2023/11/06 00:19:08;;;;;;;8.63;7.82;;;;;;;;;;6151637;23;20021;-77
2023/11/06 00:21:35;;;;;;;10.98;9.98;;;;;;;;;;6151696;23;20043;-76
2023/11/06 00:24:01;;;;;;;7.70;6.97;;;;;;;;;;6153600;23;20130;-77
2023/11/06 00:26:27;;;;;;;7.65;6.95;;;;;;;;;;6126803;23;20020;-78
2023/11/06 00:28:55;;;;;;;8.73;8.02;;;;;;;;;;6127406;23;20017;-78
2023/11/06 00:31:22;;;;;;;6.80;6.30;;;;;;;;;;6151386;23;20076;-78
2023/11/06 00:33:48;;;;;;;10.48;9.43;;;;;;;;;;6154170;23;20076;-78
2023/11/06 00:36:18;;;;;;;7.80;7.10;;;;;;;;;;6152933;23;20405;-77
2023/11/06 00:38:44;;;;;;;6.85;6.35;;;;;;;;;;6127141;23;20362;-78
2023/11/06 00:41:11;;;;;;;6.40;6.00;;;;;;;;;;6153281;23;20029;-78
2023/11/06 00:43:38;;;;;;;7.20;6.55;;;;;;;;;;6151830;23;20022;-77
2023/11/06 00:46:04;;;;;;;6.05;5.63;;;;;;;;;;6127399;23;20019;-77
2023/11/06 00:48:30;;;;;;;7.18;6.57;;;;;;;;;;6102806;23;20041;-77
2023/11/06 00:50:56;;;;;;;7.70;7.13;;;;;;;;;;6152904;23;20018;-77
2023/11/06 00:53:23;;;;;;;8.85;8.15;;;;;;;;;;6151432;23;20025;-79
2023/11/06 00:55:50;;;;;;;9.60;8.77;;;;;;;;;;6153398;23;20092;-76
2023/11/06 00:58:16;;;;;;;8.30;7.60;;;;;;;;;;6153220;23;20433;-78
2023/11/06 01:00:43;;;;;;;5.18;4.85;;;;;;;;;;6151203;23;20018;-76
2023/11/06 01:03:12;;;;;;;9.07;8.30;;;;;;;;;;6127476;23;20108;-79
2023/11/06 01:05:38;;;;;;;7.30;6.70;;;;;;;;;;6128362;23;20013;-79
2023/11/06 01:08:05;;;;;;;7.97;7.25;;;;;;;;;;6154617;23;20089;-78
2023/11/06 01:10:32;;;;;;;9.50;8.80;;;;;;;;;;6157429;23;20028;-78
2023/11/06 01:13:00;;;;;;;8.25;7.65;;;;;;;;;;6157683;23;20092;-77
2023/11/06 01:15:26;;;;;;;9.50;8.70;;;;;;;;;;6129949;23;20586;-78
2023/11/06 01:17:52;;;;;;;9.80;9.00;;;;;;;;;;6154046;23;20021;-79
2023/11/06 01:20:22;;;;;;;11.75;10.77;;;;;;;;;;6154210;23;20014;-78
2023/11/06 01:22:49;;;;;;;6.18;5.68;;;;;;;;;;6153767;23;20013;-78
2023/11/06 01:25:15;;;;;;;8.02;7.43;;;;;;;;;;6155465;23;20118;-78
2023/11/06 01:27:41;;;;;;;8.10;7.45;;;;;;;;;;6156648;23;20455;-78
2023/11/06 01:30:07;;;;;;;12.60;9.75;;;;;;;;;;6156443;23;20375;-79
2023/11/06 01:32:33;;;;;;;10.52;9.63;;;;;;;;;;6142177;23;20036;-78
2023/11/06 01:34:59;;;;;;;9.07;8.27;;;;;;;;;;6147965;23;20018;-77
2023/11/06 01:37:26;;;;;;;9.32;8.50;;;;;;;;;;6170688;23;20009;-77
2023/11/06 01:39:52;;;;;;;11.77;10.55;;;;;;;;;;6161238;23;20017;-78
2023/11/06 01:42:18;;;;;;;11.55;10.48;;;;;;;;;;6152206;23;20017;-78
2023/11/06 01:44:44;;;;;;;13.38;12.07;;;;;;;;;;6152325;23;20020;-78
2023/11/06 01:47:10;;;;;;;11.88;10.75;;;;;;;;;;6152992;23;20017;-77
2023/11/06 01:49:37;;;;;;;13.70;12.18;;;;;;;;;;6153327;23;20401;-79
2023/11/06 01:52:06;;;;;;;12.40;11.32;;;;;;;;;;6152930;23;20017;-78
2023/11/06 01:54:32;;;;;;;11.25;10.07;;;;;;;;;;6155119;23;20454;-78
2023/11/06 01:56:58;;;;;;;12.00;10.82;;;;;;;;;;6153563;23;20020;-78
2023/11/06 01:59:24;;;;;;;12.07;10.90;;;;;;;;;;6152505;23;20405;-78
2023/11/06 02:01:50;;;;;;;9.98;9.07;;;;;;;;;;6153349;23;20473;-79
2023/11/06 02:04:16;;;;;;;9.88;8.98;;;;;;;;;;6156089;23;20014;-79
2023/11/06 02:06:43;;;;;;;14.07;12.77;;;;;;;;;;6156474;23;20013;-79
2023/11/06 02:09:09;;;;;;;13.65;12.00;;;;;;;;;;6131906;23;20520;-79
2023/11/06 02:11:36;;;;;;;12.98;11.68;;;;;;;;;;6157217;23;20088;-77
2023/11/06 02:14:02;;;;;;;15.68;14.05;;;;;;;;;;6156065;23;20041;-78
2023/11/06 02:16:32;;;;;;;12.77;11.68;;;;;;;;;;6156270;23;20400;-77
2023/11/06 02:18:58;;;;;;;18.00;15.90;;;;;;;;;;6156005;23;20677;-77
2023/11/06 02:21:24;;;;;;;17.80;15.95;;;;;;;;;;6154420;23;20064;-77
2023/11/06 02:23:50;;;;;;;11.43;10.32;;;;;;;;;;6153440;23;20025;-76
2023/11/06 02:26:16;;;;;;;10.77;9.77;;;;;;;;;;6153167;23;20081;-77
2023/11/06 02:28:50;;;;;;;11.70;10.48;;;;;;;;;;6154062;23;20026;-78
2023/11/06 02:31:16;;;;;;;11.25;10.32;;;;;;;;;;6154565;23;20013;-77
2023/11/06 02:33:42;;;;;;;17.55;15.18;;;;;;;;;;6175569;23;20013;-77
2023/11/06 02:36:09;;;;;;;18.15;13.35;;;;;;;;;;6165230;23;20374;-76
2023/11/06 02:38:35;;;;;;;16.25;14.55;;;;;;;;;;6156590;23;20020;-77
2023/11/06 02:41:03;;;;;;;15.43;13.80;;;;;;;;;;6155661;23;20013;-76
2023/11/06 02:43:29;;;;;;;15.55;14.18;;;;;;;;;;6152563;23;20112;-76
2023/11/06 02:45:55;;;;;;;15.88;14.30;;;;;;;;;;6153720;23;20041;-77
2023/11/06 02:48:22;;;;;;;19.17;14.95;;;;;;;;;;6153436;23;20080;-77
2023/11/06 02:50:48;;;;;;;17.27;15.60;;;;;;;;;;6152119;23;20020;-76
2023/11/06 02:53:14;;;;;;;22.65;16.83;;;;;;;;;;6153999;23;20009;-76
2023/11/06 02:55:40;;;;;;;16.25;13.77;;;;;;;;;;6154082;23;20045;-75
2023/11/06 02:58:07;;;;;;;14.10;12.75;;;;;;;;;;6152992;23;20028;-76
2023/11/06 03:00:34;;;;;;;11.60;10.52;;;;;;;;;;6153663;23;20017;-75
2023/11/06 03:03:00;;;;;;;10.75;9.85;;;;;;;;;;6153493;23;20010;-75
2023/11/06 03:05:26;;;;;;;6.55;6.05;;;;;;;;;;6152421;23;20023;-76
2023/11/06 03:07:52;;;;;;;7.65;7.05;;;;;;;;;;6152512;23;20012;-77
2023/11/06 03:10:18;;;;;;;6.10;5.70;;;;;;;;;;6154017;23;20473;-77
2023/11/06 03:12:44;;;;;;;5.68;5.28;;;;;;;;;;6154633;23;20073;-76
2023/11/06 03:15:11;;;;;;;3.75;3.55;;;;;;;;;;6155129;23;20064;-76
2023/11/06 03:17:37;;;;;;;2.38;2.28;;;;;;;;;;6154686;23;20442;-77
2023/11/06 03:20:12;;;;;;;1.58;1.50;;;;;;;;;;6155936;23;20013;-77
2023/11/06 03:22:38;;;;;;;1.30;1.30;;;;;;;;;;6155267;23;20018;-75
2023/11/06 03:25:05;;;;;;;0.75;0.75;;;;;;;;;;6153807;23;20102;-76
2023/11/06 03:27:31;;;;;;;0.82;0.82;;;;;;;;;;6153089;23;20036;-74
2023/11/06 03:29:57;;;;;;;0.70;0.70;;;;;;;;;;6151647;23;20100;-75
2023/11/06 03:32:23;;;;;;;0.75;0.75;;;;;;;;;;6152199;23;20014;-74
2023/11/06 03:34:49;;;;;;;0.90;0.65;;;;;;;;;;6151693;23;20104;-75
2023/11/06 03:37:15;;;;;;;0.65;0.65;;;;;;;;;;6152700;23;20037;-75
2023/11/06 03:39:41;;;;;;;0.52;0.52;;;;;;;;;;6151590;23;20041;-74
2023/11/06 03:42:07;;;;;;;0.90;0.70;;;;;;;;;;6153761;23;20084;-74
2023/11/06 03:44:33;;;;;;;0.93;0.70;;;;;;;;;;6151409;23;20067;-76
2023/11/06 03:46:59;;;;;;;0.70;0.70;;;;;;;;;;6153373;23;20474;-77
2023/11/06 03:49:25;;;;;;;1.00;1.00;;;;;;;;;;6151823;23;20048;-76
2023/11/06 03:51:51;;;;;;;1.23;0.80;;;;;;;;;;6151908;23;20021;-77
2023/11/06 03:54:17;;;;;;;0.90;0.90;;;;;;;;;;6153401;23;20013;-76
2023/11/06 03:56:43;;;;;;;1.05;1.05;;;;;;;;;;6153639;23;20013;-76
2023/11/06 03:59:09;;;;;;;0.98;0.77;;;;;;;;;;6153838;23;20013;-78
2023/11/06 04:01:35;;;;;;;1.17;1.15;;;;;;;;;;6151564;23;20036;-78
2023/11/06 04:04:02;;;;;;;0.60;0.60;;;;;;;;;;6152099;23;20394;-77
2023/11/06 04:06:30;;;;;;;0.70;0.70;;;;;;;;;;6151893;23;20006;-77
2023/11/06 04:08:56;;;;;;;1.02;1.02;;;;;;;;;;6153580;23;20028;-77
2023/11/06 04:11:23;;;;;;;0.80;0.80;;;;;;;;;;6127392;23;20375;-77
2023/11/06 04:13:49;;;;;;;0.90;0.90;;;;;;;;;;6176139;23;20029;-76
2023/11/06 04:16:15;;;;;;;1.00;1.00;;;;;;;;;;6153872;23;20018;-78
2023/11/06 04:18:40;;;;;;;1.00;1.00;;;;;;;;;;6153361;23;20014;-77
2023/11/06 04:21:07;;;;;;;3.72;1.02;;;;;;;;;;6127399;23;20120;-77
2023/11/06 04:23:33;;;;;;;0.82;0.82;;;;;;;;;;6154055;23;20013;-79
2023/11/06 04:25:59;;;;;;;1.48;1.13;;;;;;;;;;6152737;23;20452;-79
2023/11/06 04:28:25;;;;;;;1.95;1.05;;;;;;;;;;6153615;23;20525;-78
2023/11/06 04:30:51;;;;;;;3.83;2.35;;;;;;;;;;6153596;23;20018;-78
2023/11/06 04:33:17;;;;;;;1.55;1.45;;;;;;;;;;6152983;23;20036;-77
2023/11/06 04:35:44;;;;;;;1.25;1.25;;;;;;;;;;6175982;23;20366;-78
2023/11/06 04:38:11;;;;;;;1.20;1.20;;;;;;;;;;6176534;23;20076;-78
2023/11/06 04:40:37;;;;;;;0.90;0.90;;;;;;;;;;6153140;23;20024;-77
2023/11/06 04:43:03;;;;;;;2.22;1.38;;;;;;;;;;6151677;23;20029;-78
2023/11/06 04:45:29;;;;;;;1.73;1.35;;;;;;;;;;6153033;23;20024;-78
2023/11/06 04:47:55;;;;;;;1.40;1.33;;;;;;;;;;6153358;23;20037;-78
2023/11/06 04:50:21;;;;;;;1.23;1.13;;;;;;;;;;6152004;23;20134;-78
2023/11/06 04:52:47;;;;;;;1.45;1.30;;;;;;;;;;6151920;23;20013;-78
2023/11/06 04:55:13;;;;;;;0.90;0.90;;;;;;;;;;6153018;23;20532;-80
2023/11/06 04:57:39;;;;;;;1.05;1.05;;;;;;;;;;6158068;23;20014;-80
2023/11/06 05:00:06;;;;;;;0.98;0.98;;;;;;;;;;6161035;23;20044;-79
2023/11/06 05:02:32;;;;;;;1.35;1.25;;;;;;;;;;6160049;23;20017;-80
2023/11/06 05:04:57;;;;;;;1.02;1.02;;;;;;;;;;6153379;23;20033;-79
2023/11/06 05:07:24;;;;;;;1.05;1.05;;;;;;;;;;6128040;23;20017;-80
2023/11/06 05:09:50;;;;;;;0.93;0.93;;;;;;;;;;6154822;23;20433;-80
2023/11/06 05:12:16;;;;;;;1.17;1.08;;;;;;;;;;6159068;23;20016;-80
2023/11/06 05:14:42;;;;;;;1.00;1.00;;;;;;;;;;6163655;23;20036;-80
2023/11/06 05:17:10;;;;;;;1.10;1.10;;;;;;;;;;6164420;23;20072;-79
2023/11/06 05:19:41;;;;;;;1.02;1.02;;;;;;;;;;6160191;23;20018;-80
2023/11/06 05:22:08;;;;;;;2.20;1.25;;;;;;;;;;6162313;23;20009;-79
2023/11/06 05:24:35;;;;;;;1.40;1.30;;;;;;;;;;6162971;23;20014;-80
2023/11/06 05:27:02;;;;;;;1.27;1.10;;;;;;;;;;6168623;23;19997;-81
2023/11/06 05:29:28;;;;;;;2.65;1.90;;;;;;;;;;6180227;23;20088;-79
2023/11/06 05:31:54;;;;;;;2.17;1.88;;;;;;;;;;6177928;23;20020;-80
2023/11/06 05:34:21;;;;;;;1.70;1.60;;;;;;;;;;6160596;23;20017;-75
2023/11/06 05:36:47;;;;;;;3.17;1.27;;;;;;;;;;6155429;23;20016;-76
2023/11/06 05:39:14;;;;;;;1.98;1.17;;;;;;;;;;6156357;23;20084;-74
2023/11/06 05:41:40;;;;;;;1.50;1.50;;;;;;;;;;6155938;23;20068;-75
2023/11/06 05:44:08;;;;;;;1.70;1.60;;;;;;;;;;6170461;23;20088;-74
2023/11/06 05:46:34;;;;;;;1.02;1.02;;;;;;;;;;6169001;23;20069;-74
2023/11/06 05:49:01;;;;;;;1.00;1.00;;;;;;;;;;6169447;23;20064;-76
2023/11/06 05:51:27;;;;;;;1.42;1.33;;;;;;;;;;6156061;23;20430;-75
2023/11/06 05:53:53;;;;;;;1.23;1.23;;;;;;;;;;6153236;23;20044;-75
2023/11/06 05:56:19;;;;;;;1.23;1.13;;;;;;;;;;6154076;23;20500;-75
2023/11/06 05:58:45;;;;;;;1.33;1.23;;;;;;;;;;6177692;23;20045;-74
2023/11/06 06:01:11;;;;;;;1.58;1.20;;;;;;;;;;6150176;23;20485;-74
2023/11/06 06:03:37;;;;;;;0.82;0.82;;;;;;;;;;6151530;23;20018;-77
2023/11/06 06:06:04;;;;;;;0.95;0.77;;;;;;;;;;6153724;23;20022;-77
2023/11/06 06:08:30;;;;;;;1.17;1.17;;;;;;;;;;6154977;23;20045;-75
2023/11/06 06:10:55;;;;;;;3.13;1.02;;;;;;;;;;6153702;23;20389;-75
2023/11/06 06:13:22;;;;;;;0.80;0.80;;;;;;;;;;6154120;23;20009;-75
2023/11/06 06:15:48;;;;;;;0.90;0.90;;;;;;;;;;6153921;23;20411;-74
2023/11/06 06:18:14;;;;;;;0.77;0.77;;;;;;;;;;6153037;23;20489;-74
2023/11/06 06:20:40;;;;;;;0.82;0.82;;;;;;;;;;6175175;23;20018;-75
2023/11/06 06:23:06;;;;;;;1.65;1.15;;;;;;;;;;6152725;23;20009;-74
2023/11/06 06:25:33;;;;;;;1.60;1.50;;;;;;;;;;6151699;23;20049;-74
2023/11/06 06:27:59;;;;;;;1.60;1.50;;;;;;;;;;6150988;23;20013;-75
2023/11/06 06:30:25;;;;;;;2.25;2.15;;;;;;;;;;6151065;23;20087;-75
2023/11/06 06:32:52;;;;;;;2.30;2.20;;;;;;;;;;6150004;23;20096;-74
2023/11/06 06:35:18;;;;;;;2.35;1.92;;;;;;;;;;6150658;23;20049;-75
2023/11/06 06:37:44;;;;;;;1.80;1.70;;;;;;;;;;6151523;23;20172;-75
2023/11/06 06:40:11;;;;;;;2.13;2.03;;;;;;;;;;6127019;23;20017;-74
2023/11/06 06:42:37;;;;;;;2.20;2.00;;;;;;;;;;6152484;23;20104;-74
2023/11/06 06:45:04;;;;;;;1.73;1.63;;;;;;;;;;6153782;23;20013;-74
2023/11/06 06:47:32;;;;;;;1.98;1.88;;;;;;;;;;6127612;23;20021;-74
2023/11/06 06:49:58;;;;;;;4.80;2.08;;;;;;;;;;6153630;23;20517;-75
2023/11/06 06:52:24;;;;;;;2.00;1.90;;;;;;;;;;6151361;23;20040;-74
2023/11/06 06:54:50;;;;;;;2.13;2.03;;;;;;;;;;6126782;23;20525;-75
2023/11/06 06:57:16;;;;;;;1.85;1.75;;;;;;;;;;6153538;23;20013;-74
2023/11/06 06:59:42;;;;;;;2.25;2.15;;;;;;;;;;6151800;23;20410;-74
2023/11/06 07:02:08;;;;;;;2.67;2.47;;;;;;;;;;6153625;23;20071;-74
2023/11/06 07:04:37;;;;;;;2.45;2.33;;;;;;;;;;6152092;23;20013;-74
2023/11/06 07:07:03;;;;;;;2.42;2.33;;;;;;;;;;6151172;23;20013;-74
2023/11/06 07:09:31;;;;;;;2.80;2.70;;;;;;;;;;6148197;23;20084;-73
2023/11/06 07:11:58;;;;;;;3.22;2.95;;;;;;;;;;6152404;23;20019;-74
2023/11/06 07:14:24;;;;;;;3.17;2.97;;;;;;;;;;6152807;23;20035;-73
2023/11/06 07:16:52;;;;;;;3.60;3.30;;;;;;;;;;6175504;23;20075;-74
2023/11/06 07:19:18;;;;;;;3.40;3.20;;;;;;;;;;6153055;23;20014;-72
2023/11/06 07:21:44;;;;;;;3.80;3.40;;;;;;;;;;6152378;23;20013;-73
2023/11/06 07:24:10;;;;;;;4.13;3.83;;;;;;;;;;6150475;23;20017;-73
2023/11/06 07:26:36;;;;;;;4.15;3.72;;;;;;;;;;6150613;23;20093;-73
2023/11/06 07:29:03;;;;;;;3.40;3.20;;;;;;;;;;6150962;23;20084;-75
2023/11/06 07:31:29;;;;;;;4.25;3.97;;;;;;;;;;6151974;23;20012;-73
2023/11/06 07:33:55;;;;;;;3.97;3.67;;;;;;;;;;6150990;23;20020;-73
2023/11/06 07:36:21;;;;;;;4.60;4.20;;;;;;;;;;6152731;23;20009;-73
2023/11/06 07:38:47;;;;;;;3.05;2.85;;;;;;;;;;6125993;23;20013;-74
2023/11/06 07:41:12;;;;;;;4.68;4.28;;;;;;;;;;6126627;23;20025;-74
2023/11/06 07:43:39;;;;;;;2.88;2.78;;;;;;;;;;6150231;23;20033;-74
2023/11/06 07:46:05;;;;;;;4.47;4.15;;;;;;;;;;6151233;23;20013;-74
2023/11/06 07:48:31;;;;;;;4.10;3.80;;;;;;;;;;6152080;23;20026;-74
2023/11/06 07:50:57;;;;;;;4.13;3.83;;;;;;;;;;6150724;23;20040;-74
2023/11/06 07:53:23;;;;;;;5.47;4.97;;;;;;;;;;6152380;23;20091;-74
2023/11/06 07:55:50;;;;;;;4.97;4.57;;;;;;;;;;6151975;23;20021;-74
2023/11/06 07:58:16;;;;;;;4.65;4.25;;;;;;;;;;6152039;23;20013;-74
2023/11/06 08:00:42;;;;;;;5.25;4.93;;;;;;;;;;6150438;23;20462;-74
2023/11/06 08:03:08;;;;;;;5.53;5.13;;;;;;;;;;6150755;23;20014;-74
2023/11/06 08:05:36;;;;;;;5.85;5.35;;;;;;;;;;6150523;23;20014;-74
2023/11/06 08:08:03;;;;;;;6.00;5.50;;;;;;;;;;6152190;23;20010;-74
2023/11/06 08:10:31;;;;;;;5.78;5.22;;;;;;;;;;6151797;23;19917;-73
2023/11/06 08:12:59;;;;;;;6.70;6.10;;;;;;;;;;6152405;23;20524;-74
2023/11/06 08:15:25;;;;;;;5.05;4.72;;;;;;;;;;6151906;23;20017;-74
2023/11/06 08:17:52;;;;;;;7.18;6.60;;;;;;;;;;6150706;23;20017;-73
2023/11/06 08:20:18;;;;;;;7.68;6.22;;;;;;;;;;6153378;23;20096;-73
2023/11/06 08:22:44;;;;;;;8.10;6.65;;;;;;;;;;6165391;23;19994;-74
2023/11/06 08:25:14;;;;;;;7.20;6.60;;;;;;;;;;6175286;23;20006;-74
2023/11/06 08:27:40;;;;;;;8.73;7.88;;;;;;;;;;6152764;23;20013;-73
2023/11/06 08:30:09;;;;;;;8.07;7.32;;;;;;;;;;6125929;23;20033;-73
2023/11/06 08:32:35;;;;;;;10.98;7.97;;;;;;;;;;6150706;23;20010;-73
2023/11/06 08:35:04;;;;;;;8.93;8.13;;;;;;;;;;6174949;23;20091;-76
2023/11/06 08:37:32;;;;;;;10.57;8.47;;;;;;;;;;6149343;23;20045;-73
2023/11/06 08:39:58;;;;;;;8.90;8.00;;;;;;;;;;6151465;23;20044;-74
2023/11/06 08:42:24;;;;;;;9.27;7.93;;;;;;;;;;6151380;23;20024;-74
2023/11/06 08:44:51;;;;;;;9.13;7.25;;;;;;;;;;6150253;23;20087;-73
2023/11/06 08:47:19;;;;;;;8.55;7.80;;;;;;;;;;6125895;23;20100;-73
2023/11/06 08:49:45;;;;;;;12.57;9.38;;;;;;;;;;6151630;23;20352;-73
2023/11/06 08:52:11;;;;;;;8.75;8.00;;;;;;;;;;6151435;23;20013;-73
2023/11/06 08:54:45;;;;;;;7.90;7.20;;;;;;;;;;6151763;23;20355;-73
2023/11/06 08:57:12;;;;;;;14.07;10.73;;;;;;;;;;6150755;23;20013;-74
2023/11/06 08:59:39;;;;;;;13.00;9.13;;;;;;;;;;6152056;23;20024;-74
2023/11/06 09:02:06;;;;;;;9.32;8.43;;;;;;;;;;6152161;23;20097;-73
2023/11/06 09:04:33;;;;;;;9.20;8.40;;;;;;;;;;6150157;23;20026;-72
2023/11/06 09:07:03;;;;;;;11.48;9.90;;;;;;;;;;6149660;23;20437;-74
2023/11/06 09:09:29;;;;;;;8.77;7.93;;;;;;;;;;6151099;23;20025;-74
2023/11/06 09:11:55;;;;;;;10.27;9.27;;;;;;;;;;6150993;23;20042;-73
2023/11/06 09:14:21;;;;;;;13.77;8.38;;;;;;;;;;6152295;23;20021;-74
2023/11/06 09:16:47;;;;;;;15.43;9.75;;;;;;;;;;6152817;23;20383;-76
2023/11/06 09:19:13;;;;;;;9.93;8.93;;;;;;;;;;6127824;23;20039;-76
2023/11/06 09:21:40;;;;;;;9.73;8.85;;;;;;;;;;6152691;23;20017;-77
2023/11/06 09:24:07;;;;;;;7.30;6.70;;;;;;;;;;6153388;23;20137;-78
2023/11/06 09:26:33;;;;;;;11.35;10.00;;;;;;;;;;6127163;23;20096;-80
2023/11/06 09:29:01;;;;;;;12.88;9.63;;;;;;;;;;6127341;23;20045;-77
2023/11/06 09:31:27;;;;;;;9.00;8.23;;;;;;;;;;6152835;23;20068;-76
2023/11/06 09:33:54;;;;;;;11.32;9.73;;;;;;;;;;6153575;23;20321;-78
2023/11/06 09:36:21;;;;;;;12.85;9.27;;;;;;;;;;6151405;23;20014;-81
2023/11/06 09:38:48;;;;;;;9.43;7.40;;;;;;;;;;6151867;23;20068;-76
2023/11/06 09:41:14;;;;;;;10.48;9.40;;;;;;;;;;6155336;23;20020;-77
2023/11/06 09:43:40;;;;;;;8.45;7.57;;;;;;;;;;6167414;23;20037;-79
2023/11/06 09:46:10;;;;;;;8.52;7.63;;;;;;;;;;6118820;23;20037;-77
2023/11/06 09:48:36;;;;;;;10.77;9.75;;;;;;;;;;6167072;23;20022;-78
2023/11/06 09:51:03;;;;;;;10.20;9.20;;;;;;;;;;6152386;23;20017;-75
2023/11/06 09:53:29;;;;;;;9.02;8.25;;;;;;;;;;6150631;23;20010;-77
2023/11/06 09:55:55;;;;;;;10.48;9.43;;;;;;;;;;6152423;23;20020;-78
2023/11/06 09:58:21;;;;;;;8.23;7.43;;;;;;;;;;6152018;23;20010;-77
2023/11/06 10:00:48;;;;;;;11.50;9.65;;;;;;;;;;6152242;23;20013;-78
2023/11/06 10:03:14;;;;;;;9.88;8.88;;;;;;;;;;6149750;23;20014;-77
2023/11/06 10:05:41;;;;;;;10.27;9.07;;;;;;;;;;6151369;23;20018;-78
2023/11/06 10:08:07;;;;;;;11.13;9.63;;;;;;;;;;6151631;23;20021;-75
2023/11/06 10:10:34;;;;;;;9.48;8.52;;;;;;;;;;6174334;23;20044;-76
2023/11/06 10:13:12;;;;;;;9.52;8.63;;;;;;;;;;6152227;23;20454;-76
2023/11/06 10:15:38;;;;;;;10.15;9.18;;;;;;;;;;6152788;23;20017;-76
2023/11/06 10:18:13;;;;;;;9.27;8.30;;;;;;;;;;6154746;23;20462;-73
2023/11/06 10:20:40;;;;;;;8.88;8.13;;;;;;;;;;6152343;23;20013;-74
2023/11/06 10:23:07;;;;;;;11.57;10.57;;;;;;;;;;6150354;23;20013;-73
2023/11/06 10:25:33;;;;;;;10.38;9.38;;;;;;;;;;6149302;23;20018;-77
2023/11/06 10:27:59;;;;;;;9.50;8.57;;;;;;;;;;6153100;23;20358;-76
2023/11/06 10:30:25;;;;;;;10.02;9.00;;;;;;;;;;6152593;23;20378;-76
2023/11/06 10:32:51;;;;;;;11.88;10.13;;;;;;;;;;6150824;23;20388;-74
2023/11/06 10:35:17;;;;;;;9.82;8.93;;;;;;;;;;6152826;23;20017;-75
2023/11/06 10:37:45;;;;;;;8.50;7.28;;;;;;;;;;6151149;23;20594;-74
2023/11/06 10:40:14;;;;;;;8.73;7.85;;;;;;;;;;6152382;23;20458;-73
2023/11/06 10:42:42;;;;;;;11.00;10.05;;;;;;;;;;6149067;23;20027;-74
2023/11/06 10:45:11;;;;;;;9.68;8.88;;;;;;;;;;6150886;23;20021;-74
2023/11/06 10:47:38;;;;;;;10.43;9.52;;;;;;;;;;6150577;23;20044;-75
2023/11/06 10:50:07;;;;;;;8.88;8.18;;;;;;;;;;6126422;23;20017;-73
2023/11/06 10:52:33;;;;;;;9.35;8.52;;;;;;;;;;6152115;23;20013;-74
2023/11/06 10:55:03;;;;;;;10.80;9.80;;;;;;;;;;6151423;23;20017;-76
2023/11/06 10:57:33;;;;;;;12.48;11.48;;;;;;;;;;6150139;23;20093;-74
2023/11/06 11:00:00;;;;;;;8.95;7.57;;;;;;;;;;6152165;23;20014;-73
2023/11/06 11:02:38;;;;;;;9.35;8.48;;;;;;;;;;6152068;23;20104;-73
2023/11/06 11:05:06;;;;;;;8.15;6.95;;;;;;;;;;6126545;23;20042;-73
2023/11/06 11:07:32;;;;;;;9.68;8.68;;;;;;;;;;6173036;23;20016;-73
2023/11/06 11:09:58;;;;;;;9.60;8.65;;;;;;;;;;6146304;23;20077;-74
2023/11/06 11:12:24;;;;;;;10.60;8.27;;;;;;;;;;6124944;23;20013;-73
2023/11/06 11:14:50;;;;;;;8.40;7.70;;;;;;;;;;6151163;23;20025;-73
2023/11/06 11:17:16;;;;;;;9.80;9.02;;;;;;;;;;6152906;23;20360;-72
2023/11/06 11:19:42;;;;;;;10.65;9.75;;;;;;;;;;6149433;23;20052;-72
2023/11/06 11:22:08;;;;;;;8.75;8.05;;;;;;;;;;6162826;23;20010;-74
2023/11/06 11:24:41;;;;;;;10.77;9.98;;;;;;;;;;6173958;23;20048;-74
2023/11/06 11:27:10;;;;;;;7.03;6.50;;;;;;;;;;6150257;23;20544;-74
2023/11/06 11:29:55;;;;;;;9.45;8.65;;;;;;;;;;6150233;23;20017;-74
2023/11/06 11:32:21;;;;;;;14.90;9.82;;;;;;;;;;6151365;23;20013;-74
2023/11/06 11:34:47;;;;;;;9.75;8.85;;;;;;;;;;6126665;23;20391;-72
2023/11/06 11:37:35;;;;;;;10.35;9.27;;;;;;;;;;6153039;23;20041;-73
2023/11/06 11:40:03;;;;;;;10.65;9.70;;;;;;;;;;6155604;23;20010;-73
2023/11/06 11:42:31;;;;;;;10.90;9.88;;;;;;;;;;6126035;23;20014;-73
2023/11/06 11:44:57;;;;;;;10.95;9.98;;;;;;;;;;6147757;23;20406;-74
2023/11/06 11:47:23;;;;;;;21.67;10.63;;;;;;;;;;6148782;23;20032;-73
2023/11/06 11:49:52;;;;;;;10.65;9.50;;;;;;;;;;6149602;23;20424;-74
2023/11/06 11:52:24;;;;;;;9.40;8.55;;;;;;;;;;6150070;23;20013;-73
2023/11/06 11:54:50;;;;;;;8.43;7.68;;;;;;;;;;6148732;23;20017;-74
2023/11/06 11:57:16;;;;;;;9.77;8.85;;;;;;;;;;6149018;23;20014;-74
2023/11/06 11:59:47;;;;;;;9.55;8.68;;;;;;;;;;6145086;23;20494;-74
2023/11/06 12:02:26;;;;;;;8.48;7.75;;;;;;;;;;6148702;23;20016;-74
2023/11/06 12:04:59;;;;;;;10.85;10.00;;;;;;;;;;6122660;23;20018;-73
2023/11/06 12:07:28;;;;;;;6.85;6.35;;;;;;;;;;6147729;23;20458;-73
2023/11/06 12:09:55;;;;;;;8.27;7.53;;;;;;;;;;6121495;23;20021;-73
2023/11/06 12:12:25;;;;;;;8.10;7.43;;;;;;;;;;6147650;23;20021;-73
2023/11/06 12:14:52;;;;;;;8.97;8.17;;;;;;;;;;6120270;23;20472;-72
2023/11/06 12:17:28;;;;;;;8.38;7.70;;;;;;;;;;6146063;23;20013;-73
2023/11/06 12:19:54;;;;;;;8.80;7.57;;;;;;;;;;6146607;23;20064;-73
2023/11/06 12:22:20;;;;;;;8.60;7.88;;;;;;;;;;6146566;23;20458;-73
2023/11/06 12:24:50;;;;;;;8.48;7.70;;;;;;;;;;6147814;23;20013;-73
2023/11/06 12:27:17;;;;;;;6.97;6.40;;;;;;;;;;6148904;23;20009;-72
2023/11/06 12:29:44;;;;;;;7.18;6.57;;;;;;;;;;6150549;23;20025;-73
2023/11/06 12:32:22;;;;;;;10.02;9.18;;;;;;;;;;6151518;23;20009;-73
2023/11/06 12:35:05;;;;;;;10.57;6.57;;;;;;;;;;6149882;23;20339;-73
2023/11/06 12:37:45;;;;;;;8.25;7.57;;;;;;;;;;6152246;23;20096;-74
2023/11/06 12:40:15;;;;;;;6.82;6.22;;;;;;;;;;6122258;23;20067;-72
2023/11/06 12:42:42;;;;;;;8.85;7.80;;;;;;;;;;6147360;23;20017;-73
2023/11/06 12:45:25;;;;;;;7.57;6.05;;;;;;;;;;6096289;23;20025;-73
2023/11/06 12:47:52;;;;;;;3.92;3.72;;;;;;;;;;6145949;23;20010;-73
2023/11/06 12:50:18;;;;;;;5.72;5.32;;;;;;;;;;6146454;23;20778;-74
2023/11/06 12:52:44;;;;;;;6.40;5.90;;;;;;;;;;6144960;23;20009;-73
2023/11/06 12:55:13;;;;;;;6.20;5.63;;;;;;;;;;6147198;23;20041;-74
2023/11/06 12:57:40;;;;;;;8.50;7.70;;;;;;;;;;6146305;23;20043;-74
2023/11/06 13:00:12;;;;;;;5.30;4.85;;;;;;;;;;6146127;23;20021;-73
2023/11/06 13:02:39;;;;;;;5.40;5.00;;;;;;;;;;6146890;23;20080;-72
2023/11/06 13:05:09;;;;;;;4.97;4.47;;;;;;;;;;6146034;23;20406;-73
2023/11/06 13:07:41;;;;;;;6.72;5.93;;;;;;;;;;6150768;23;20014;-74
2023/11/06 13:10:10;;;;;;;4.80;4.50;;;;;;;;;;6149818;23;20018;-74
2023/11/06 13:12:36;;;;;;;5.88;5.30;;;;;;;;;;6151643;23;20068;-74
2023/11/06 13:15:10;;;;;;;6.65;5.32;;;;;;;;;;6150878;23;20026;-73
2023/11/06 13:17:37;;;;;;;5.70;5.20;;;;;;;;;;6099341;23;20128;-73
2023/11/06 13:20:04;;;;;;;5.22;4.88;;;;;;;;;;6151355;23;20072;-73
2023/11/06 13:22:32;;;;;;;5.20;4.80;;;;;;;;;;6174695;23;20517;-73
2023/11/06 13:24:59;;;;;;;6.30;5.28;;;;;;;;;;6150807;23;20013;-73
2023/11/06 13:27:25;;;;;;;6.15;5.55;;;;;;;;;;6151182;23;20516;-74
2023/11/06 13:29:51;;;;;;;4.75;4.45;;;;;;;;;;6150399;23;20462;-72
2023/11/06 13:32:17;;;;;;;6.15;5.65;;;;;;;;;;6149792;23;20025;-72
2023/11/06 13:34:43;;;;;;;5.43;5.03;;;;;;;;;;6150231;23;20022;-73
2023/11/06 13:37:10;;;;;;;7.47;6.72;;;;;;;;;;6151746;23;20088;-74
2023/11/06 13:39:36;;;;;;;6.03;5.53;;;;;;;;;;6152210;23;20041;-73
2023/11/06 13:42:06;;;;;;;7.22;6.63;;;;;;;;;;6152592;23;20009;-75
2023/11/06 13:44:32;;;;;;;6.88;6.28;;;;;;;;;;6151380;23;20076;-73
2023/11/06 13:46:59;;;;;;;6.72;6.18;;;;;;;;;;6165639;23;20013;-73
2023/11/06 13:49:25;;;;;;;6.72;6.13;;;;;;;;;;6180927;23;20032;-71
2023/11/06 13:51:51;;;;;;;5.40;4.93;;;;;;;;;;6153919;23;20016;-72
2023/11/06 13:54:27;;;;;;;6.70;6.20;;;;;;;;;;6152056;23;20739;-71
2023/11/06 13:56:54;;;;;;;5.35;4.72;;;;;;;;;;6152089;23;20052;-72
2023/11/06 13:59:29;;;;;;;6.75;6.15;;;;;;;;;;6152114;23;20013;-72
2023/11/06 14:01:56;;;;;;;5.57;5.07;;;;;;;;;;6152241;23;20036;-72
2023/11/06 14:04:23;;;;;;;8.25;7.55;;;;;;;;;;6150268;23;20100;-71
2023/11/06 14:06:54;;;;;;;7.93;7.22;;;;;;;;;;6152231;23;20490;-74
2023/11/06 14:11:58;;;;;;;5.88;5.47;;;;;;;;;;6151644;23;19909;-73
2023/11/06 14:14:24;;;;;;;7.55;6.95;;;;;;;;;;6175619;23;20082;-72
2023/11/06 14:16:55;;;;;;;10.13;8.13;;;;;;;;;;6152975;23;20009;-73
2023/11/06 14:19:22;;;;;;;;;;;;;;;;;;6158766;23;20013;-72
2023/11/06 14:21:49;;;;;;;6.95;6.45;;;;;;;;;;6160658;23;19908;-73
2023/11/06 14:24:14;;;;;;;7.95;7.32;;;;;;;;;;6152763;23;20013;-72
2023/11/06 14:26:41;;;;;;;10.38;9.48;;;;;;;;;;6150666;23;20047;-73
2023/11/06 14:29:09;;;;;;;8.73;8.05;;;;;;;;;;6151047;23;20029;-72
2023/11/06 14:31:35;;;;;;;9.52;8.73;;;;;;;;;;6152465;23;20454;-72
2023/11/06 14:34:02;;;;;;;11.10;10.10;;;;;;;;;;6151754;23;20017;-73
2023/11/06 14:36:28;;;;;;;14.85;13.45;;;;;;;;;;6152628;23;20462;-73
2023/11/06 14:38:54;;;;;;;13.07;11.77;;;;;;;;;;6125637;23;20037;-73
2023/11/06 14:41:21;;;;;;;13.20;11.85;;;;;;;;;;6152396;23;20017;-73